sensor_id;sensor_type;location;lat;lon;timestamp;P1;durP1;ratioP1;P2;durP2;ratioP2
75071;SDS011;63651;55.728;38.022;2022-12-29T00:04:29;4.28;;;2.40;;
75071;SDS011;63651;55.728;38.022;2022-12-29T00:09:30;3.42;;;2.60;;
75071;SDS011;63651;55.728;38.022;2022-12-29T00:14:32;4.60;;;2.45;;
75071;SDS011;63651;55.728;38.022;2022-12-29T00:19:52;3.47;;;2.30;;
75071;SDS011;63651;55.728;38.022;2022-12-29T00:25:11;3.75;;;2.50;;
75071;SDS011;63651;55.728;38.022;2022-12-29T00:30:32;3.33;;;2.80;;
75071;SDS011;63651;55.728;38.022;2022-12-29T00:35:52;3.03;;;1.75;;
75071;SDS011;63651;55.728;38.022;2022-12-29T00:40:56;2.60;;;1.67;;
75071;SDS011;63651;55.728;38.022;2022-12-29T00:46:16;1.92;;;1.58;;
75071;SDS011;63651;55.728;38.022;2022-12-29T00:51:17;3.25;;;1.70;;
75071;SDS011;63651;55.728;38.022;2022-12-29T00:56:18;1.98;;;1.13;;
75071;SDS011;63651;55.728;38.022;2022-12-29T01:01:19;2.08;;;1.48;;
75071;SDS011;63651;55.728;38.022;2022-12-29T01:06:20;1.73;;;1.02;;
75071;SDS011;63651;55.728;38.022;2022-12-29T01:11:21;3.05;;;1.83;;
75071;SDS011;63651;55.728;38.022;2022-12-29T01:16:22;2.15;;;1.50;;
75071;SDS011;63651;55.728;38.022;2022-12-29T01:21:23;2.58;;;1.35;;
75071;SDS011;63651;55.728;38.022;2022-12-29T01:26:25;2.92;;;1.25;;
75071;SDS011;63651;55.728;38.022;2022-12-29T01:31:26;2.03;;;1.20;;
75071;SDS011;63651;55.728;38.022;2022-12-29T01:36:27;1.48;;;1.10;;
75071;SDS011;63651;55.728;38.022;2022-12-29T01:41:28;1.65;;;0.70;;
75071;SDS011;63651;55.728;38.022;2022-12-29T01:51:51;2.25;;;0.75;;
75071;SDS011;63651;55.728;38.022;2022-12-29T01:56:57;2.25;;;0.93;;
75071;SDS011;63651;55.728;38.022;2022-12-29T02:02:04;2.17;;;0.85;;
75071;SDS011;63651;55.728;38.022;2022-12-29T02:07:07;3.67;;;1.15;;
75071;SDS011;63651;55.728;38.022;2022-12-29T02:12:15;1.63;;;1.00;;
75071;SDS011;63651;55.728;38.022;2022-12-29T02:17:29;2.35;;;0.85;;
75071;SDS011;63651;55.728;38.022;2022-12-29T02:44:07;5.50;;;1.30;;
75071;SDS011;63651;55.728;38.022;2022-12-29T02:54:28;4.80;;;1.15;;
75071;SDS011;63651;55.728;38.022;2022-12-29T02:59:42;5.55;;;1.15;;
75071;SDS011;63651;55.728;38.022;2022-12-29T03:10:14;3.80;;;0.90;;
75071;SDS011;63651;55.728;38.022;2022-12-29T03:15:21;2.58;;;1.00;;
75071;SDS011;63651;55.728;38.022;2022-12-29T03:26:08;2.17;;;1.00;;
75071;SDS011;63651;55.728;38.022;2022-12-29T03:31:12;2.47;;;1.00;;
75071;SDS011;63651;55.728;38.022;2022-12-29T03:36:20;2.72;;;1.05;;
75071;SDS011;63651;55.728;38.022;2022-12-29T03:41:28;2.33;;;1.00;;
75071;SDS011;63651;55.728;38.022;2022-12-29T03:46:32;3.50;;;1.60;;
75071;SDS011;63651;55.728;38.022;2022-12-29T03:51:33;2.83;;;1.20;;
75071;SDS011;63651;55.728;38.022;2022-12-29T03:56:34;1.42;;;1.02;;
75071;SDS011;63651;55.728;38.022;2022-12-29T04:01:36;1.70;;;1.00;;
75071;SDS011;63651;55.728;38.022;2022-12-29T04:06:37;3.00;;;1.30;;
75071;SDS011;63651;55.728;38.022;2022-12-29T04:11:38;1.67;;;1.17;;
75071;SDS011;63651;55.728;38.022;2022-12-29T04:16:39;3.23;;;1.23;;
75071;SDS011;63651;55.728;38.022;2022-12-29T04:21:40;3.80;;;1.40;;
75071;SDS011;63651;55.728;38.022;2022-12-29T04:26:41;2.70;;;1.38;;
75071;SDS011;63651;55.728;38.022;2022-12-29T04:31:42;1.63;;;0.98;;
75071;SDS011;63651;55.728;38.022;2022-12-29T04:36:43;2.50;;;1.35;;
75071;SDS011;63651;55.728;38.022;2022-12-29T04:41:44;1.75;;;1.08;;
75071;SDS011;63651;55.728;38.022;2022-12-29T04:46:45;1.40;;;1.05;;
75071;SDS011;63651;55.728;38.022;2022-12-29T04:51:46;2.58;;;1.20;;
75071;SDS011;63651;55.728;38.022;2022-12-29T04:56:47;2.80;;;1.33;;
75071;SDS011;63651;55.728;38.022;2022-12-29T05:01:48;2.80;;;1.10;;
75071;SDS011;63651;55.728;38.022;2022-12-29T05:06:49;3.17;;;1.42;;
75071;SDS011;63651;55.728;38.022;2022-12-29T05:11:50;2.30;;;1.10;;
75071;SDS011;63651;55.728;38.022;2022-12-29T05:16:51;2.33;;;1.33;;
75071;SDS011;63651;55.728;38.022;2022-12-29T05:21:52;1.73;;;0.70;;
75071;SDS011;63651;55.728;38.022;2022-12-29T05:26:54;3.17;;;1.00;;
75071;SDS011;63651;55.728;38.022;2022-12-29T05:31:55;2.45;;;1.05;;
75071;SDS011;63651;55.728;38.022;2022-12-29T05:36:57;3.85;;;1.60;;
75071;SDS011;63651;55.728;38.022;2022-12-29T05:41:58;3.05;;;1.50;;
75071;SDS011;63651;55.728;38.022;2022-12-29T05:46:59;3.15;;;1.27;;
75071;SDS011;63651;55.728;38.022;2022-12-29T05:52:00;2.95;;;1.60;;
75071;SDS011;63651;55.728;38.022;2022-12-29T05:57:01;2.45;;;1.65;;
75071;SDS011;63651;55.728;38.022;2022-12-29T06:02:02;2.45;;;1.30;;
75071;SDS011;63651;55.728;38.022;2022-12-29T06:07:03;2.83;;;1.98;;
75071;SDS011;63651;55.728;38.022;2022-12-29T06:12:04;5.07;;;1.70;;
75071;SDS011;63651;55.728;38.022;2022-12-29T06:17:05;3.92;;;1.67;;
75071;SDS011;63651;55.728;38.022;2022-12-29T06:22:06;3.75;;;1.90;;
75071;SDS011;63651;55.728;38.022;2022-12-29T06:27:08;3.63;;;1.90;;
75071;SDS011;63651;55.728;38.022;2022-12-29T06:32:09;3.35;;;2.33;;
75071;SDS011;63651;55.728;38.022;2022-12-29T06:37:10;3.58;;;2.35;;
75071;SDS011;63651;55.728;38.022;2022-12-29T06:42:11;3.08;;;2.20;;
75071;SDS011;63651;55.728;38.022;2022-12-29T06:47:12;3.00;;;1.90;;
75071;SDS011;63651;55.728;38.022;2022-12-29T06:52:13;2.47;;;1.85;;
75071;SDS011;63651;55.728;38.022;2022-12-29T06:57:14;3.28;;;1.70;;
75071;SDS011;63651;55.728;38.022;2022-12-29T07:02:16;2.95;;;1.80;;
75071;SDS011;63651;55.728;38.022;2022-12-29T07:07:20;2.28;;;1.25;;
75071;SDS011;63651;55.728;38.022;2022-12-29T07:12:21;3.10;;;1.80;;
75071;SDS011;63651;55.728;38.022;2022-12-29T07:17:22;2.60;;;1.25;;
75071;SDS011;63651;55.728;38.022;2022-12-29T07:22:23;2.40;;;1.48;;
75071;SDS011;63651;55.728;38.022;2022-12-29T07:27:24;3.72;;;2.00;;
75071;SDS011;63651;55.728;38.022;2022-12-29T07:32:25;2.70;;;1.60;;
75071;SDS011;63651;55.728;38.022;2022-12-29T07:37:26;2.67;;;2.10;;
75071;SDS011;63651;55.728;38.022;2022-12-29T07:42:27;4.00;;;2.10;;
75071;SDS011;63651;55.728;38.022;2022-12-29T07:47:28;2.08;;;1.40;;
75071;SDS011;63651;55.728;38.022;2022-12-29T07:52:29;3.38;;;2.00;;
75071;SDS011;63651;55.728;38.022;2022-12-29T07:57:30;4.95;;;2.58;;
75071;SDS011;63651;55.728;38.022;2022-12-29T08:02:31;3.20;;;2.13;;
75071;SDS011;63651;55.728;38.022;2022-12-29T08:07:32;1.85;;;1.60;;
75071;SDS011;63651;55.728;38.022;2022-12-29T08:12:33;4.25;;;2.30;;
75071;SDS011;63651;55.728;38.022;2022-12-29T08:17:34;4.20;;;2.45;;
75071;SDS011;63651;55.728;38.022;2022-12-29T08:22:36;3.20;;;2.78;;
75071;SDS011;63651;55.728;38.022;2022-12-29T08:27:37;3.53;;;2.88;;
75071;SDS011;63651;55.728;38.022;2022-12-29T08:32:38;3.08;;;2.45;;
75071;SDS011;63651;55.728;38.022;2022-12-29T08:37:39;2.85;;;2.40;;
75071;SDS011;63651;55.728;38.022;2022-12-29T08:42:40;3.95;;;2.60;;
75071;SDS011;63651;55.728;38.022;2022-12-29T08:47:41;2.75;;;2.03;;
75071;SDS011;63651;55.728;38.022;2022-12-29T08:52:43;5.65;;;3.50;;
75071;SDS011;63651;55.728;38.022;2022-12-29T08:57:44;6.45;;;4.82;;
75071;SDS011;63651;55.728;38.022;2022-12-29T09:02:46;4.40;;;3.80;;
75071;SDS011;63651;55.728;38.022;2022-12-29T09:07:47;5.90;;;3.80;;
75071;SDS011;63651;55.728;38.022;2022-12-29T09:12:48;5.63;;;3.45;;
75071;SDS011;63651;55.728;38.022;2022-12-29T09:17:49;3.70;;;3.05;;
75071;SDS011;63651;55.728;38.022;2022-12-29T09:22:50;3.78;;;3.10;;
75071;SDS011;63651;55.728;38.022;2022-12-29T09:27:51;4.03;;;2.90;;
75071;SDS011;63651;55.728;38.022;2022-12-29T09:32:53;4.72;;;3.33;;
75071;SDS011;63651;55.728;38.022;2022-12-29T09:37:54;4.60;;;3.05;;
75071;SDS011;63651;55.728;38.022;2022-12-29T09:48:33;6.63;;;4.20;;
75071;SDS011;63651;55.728;38.022;2022-12-29T09:53:44;4.55;;;3.85;;
75071;SDS011;63651;55.728;38.022;2022-12-29T09:58:57;4.25;;;3.78;;
75071;SDS011;63651;55.728;38.022;2022-12-29T10:03:59;4.85;;;3.85;;
75071;SDS011;63651;55.728;38.022;2022-12-29T10:09:08;3.90;;;3.28;;
75071;SDS011;63651;55.728;38.022;2022-12-29T10:24:50;5.53;;;3.97;;
75071;SDS011;63651;55.728;38.022;2022-12-29T10:29:55;5.35;;;3.97;;
75071;SDS011;63651;55.728;38.022;2022-12-29T10:35:03;6.28;;;4.38;;
75071;SDS011;63651;55.728;38.022;2022-12-29T10:40:16;9.80;;;3.92;;
75071;SDS011;63651;55.728;38.022;2022-12-29T10:45:32;4.32;;;3.75;;
75071;SDS011;63651;55.728;38.022;2022-12-29T10:50:34;4.90;;;4.20;;
75071;SDS011;63651;55.728;38.022;2022-12-29T10:55:36;5.72;;;4.40;;
75071;SDS011;63651;55.728;38.022;2022-12-29T11:00:42;5.57;;;4.03;;
75071;SDS011;63651;55.728;38.022;2022-12-29T11:11:09;5.55;;;4.07;;
75071;SDS011;63651;55.728;38.022;2022-12-29T11:16:11;3.88;;;3.45;;
75071;SDS011;63651;55.728;38.022;2022-12-29T11:26:40;5.53;;;4.90;;
75071;SDS011;63651;55.728;38.022;2022-12-29T11:31:46;9.50;;;6.53;;
75071;SDS011;63651;55.728;38.022;2022-12-29T11:36:48;9.05;;;6.28;;
75071;SDS011;63651;55.728;38.022;2022-12-29T11:41:52;10.18;;;7.32;;
75071;SDS011;63651;55.728;38.022;2022-12-29T11:46:54;11.40;;;8.05;;
75071;SDS011;63651;55.728;38.022;2022-12-29T11:51:56;15.30;;;8.77;;
75071;SDS011;63651;55.728;38.022;2022-12-29T11:56:57;10.65;;;7.45;;
75071;SDS011;63651;55.728;38.022;2022-12-29T12:07:42;11.43;;;6.93;;
75071;SDS011;63651;55.728;38.022;2022-12-29T12:12:51;8.88;;;6.60;;
75071;SDS011;63651;55.728;38.022;2022-12-29T12:18:19;8.10;;;5.95;;
75071;SDS011;63651;55.728;38.022;2022-12-29T12:28:46;11.40;;;6.78;;
75071;SDS011;63651;55.728;38.022;2022-12-29T12:33:58;15.57;;;9.30;;
75071;SDS011;63651;55.728;38.022;2022-12-29T13:10:30;11.05;;;7.80;;
75071;SDS011;63651;55.728;38.022;2022-12-29T13:21:02;21.42;;;12.70;;
75071;SDS011;63651;55.728;38.022;2022-12-29T13:26:20;25.40;;;13.48;;
75071;SDS011;63651;55.728;38.022;2022-12-29T13:36:51;14.48;;;8.70;;
75071;SDS011;63651;55.728;38.022;2022-12-29T13:41:55;13.90;;;8.15;;
75071;SDS011;63651;55.728;38.022;2022-12-29T13:46:58;15.50;;;9.63;;
75071;SDS011;63651;55.728;38.022;2022-12-29T13:52:13;16.45;;;7.50;;
75071;SDS011;63651;55.728;38.022;2022-12-29T14:08:15;10.07;;;7.03;;
75071;SDS011;63651;55.728;38.022;2022-12-29T14:13:19;9.75;;;7.63;;
75071;SDS011;63651;55.728;38.022;2022-12-29T14:18:26;10.90;;;7.13;;
75071;SDS011;63651;55.728;38.022;2022-12-29T14:23:43;9.77;;;6.38;;
75071;SDS011;63651;55.728;38.022;2022-12-29T14:28:47;9.45;;;7.22;;
75071;SDS011;63651;55.728;38.022;2022-12-29T14:49:56;9.52;;;6.90;;
75071;SDS011;63651;55.728;38.022;2022-12-29T15:00:24;10.23;;;7.57;;
75071;SDS011;63651;55.728;38.022;2022-12-29T15:05:41;9.90;;;7.25;;
75071;SDS011;63651;55.728;38.022;2022-12-29T15:10:47;7.93;;;5.93;;
75071;SDS011;63651;55.728;38.022;2022-12-29T15:15:53;9.38;;;6.45;;
75071;SDS011;63651;55.728;38.022;2022-12-29T15:20:55;10.70;;;6.50;;
75071;SDS011;63651;55.728;38.022;2022-12-29T15:26:03;9.27;;;5.95;;
75071;SDS011;63651;55.728;38.022;2022-12-29T15:31:11;8.32;;;6.10;;
75071;SDS011;63651;55.728;38.022;2022-12-29T15:36:24;8.38;;;5.55;;
75071;SDS011;63651;55.728;38.022;2022-12-29T15:47:08;8.43;;;6.05;;
75071;SDS011;63651;55.728;38.022;2022-12-29T15:52:19;9.77;;;5.72;;
75071;SDS011;63651;55.728;38.022;2022-12-29T16:02:43;7.72;;;5.72;;
75071;SDS011;63651;55.728;38.022;2022-12-29T16:07:57;6.85;;;5.13;;
75071;SDS011;63651;55.728;38.022;2022-12-29T16:13:34;7.72;;;4.97;;
75071;SDS011;63651;55.728;38.022;2022-12-29T16:18:30;8.07;;;5.80;;
75071;SDS011;63651;55.728;38.022;2022-12-29T16:23:35;8.88;;;6.03;;
75071;SDS011;63651;55.728;38.022;2022-12-29T16:28:40;7.38;;;5.05;;
75071;SDS011;63651;55.728;38.022;2022-12-29T16:33:49;7.38;;;4.03;;
75071;SDS011;63651;55.728;38.022;2022-12-29T16:39:02;6.57;;;4.80;;
75071;SDS011;63651;55.728;38.022;2022-12-29T16:44:28;8.77;;;5.72;;
75071;SDS011;63651;55.728;38.022;2022-12-29T16:49:31;8.55;;;6.10;;
75071;SDS011;63651;55.728;38.022;2022-12-29T16:54:35;7.80;;;6.03;;
75071;SDS011;63651;55.728;38.022;2022-12-29T16:59:40;8.73;;;5.60;;
75071;SDS011;63651;55.728;38.022;2022-12-29T17:04:43;12.00;;;5.70;;
75071;SDS011;63651;55.728;38.022;2022-12-29T17:09:49;7.80;;;5.03;;
75071;SDS011;63651;55.728;38.022;2022-12-29T17:19:56;6.30;;;4.47;;
75071;SDS011;63651;55.728;38.022;2022-12-29T17:25:03;8.18;;;4.75;;
75071;SDS011;63651;55.728;38.022;2022-12-29T17:30:14;5.95;;;5.22;;
75071;SDS011;63651;55.728;38.022;2022-12-29T17:35:17;7.25;;;4.43;;
75071;SDS011;63651;55.728;38.022;2022-12-29T17:40:24;9.23;;;5.93;;
75071;SDS011;63651;55.728;38.022;2022-12-29T17:45:29;8.07;;;5.70;;
75071;SDS011;63651;55.728;38.022;2022-12-29T17:50:32;7.32;;;5.35;;
75071;SDS011;63651;55.728;38.022;2022-12-29T17:55:33;6.78;;;5.13;;
75071;SDS011;63651;55.728;38.022;2022-12-29T18:00:34;7.13;;;4.95;;
75071;SDS011;63651;55.728;38.022;2022-12-29T18:05:35;7.72;;;4.82;;
75071;SDS011;63651;55.728;38.022;2022-12-29T18:10:36;10.73;;;5.38;;
75071;SDS011;63651;55.728;38.022;2022-12-29T18:15:39;7.95;;;4.85;;
75071;SDS011;63651;55.728;38.022;2022-12-29T18:20:40;7.75;;;4.85;;
75071;SDS011;63651;55.728;38.022;2022-12-29T18:25:44;6.72;;;4.70;;
75071;SDS011;63651;55.728;38.022;2022-12-29T18:30:49;8.90;;;4.78;;
75071;SDS011;63651;55.728;38.022;2022-12-29T18:35:51;7.60;;;5.18;;
75071;SDS011;63651;55.728;38.022;2022-12-29T18:45:58;5.75;;;4.70;;
75071;SDS011;63651;55.728;38.022;2022-12-29T18:50:59;6.03;;;4.30;;
75071;SDS011;63651;55.728;38.022;2022-12-29T18:56:00;7.05;;;4.72;;
75071;SDS011;63651;55.728;38.022;2022-12-29T19:01:01;8.98;;;5.03;;
75071;SDS011;63651;55.728;38.022;2022-12-29T19:06:03;7.78;;;5.40;;
75071;SDS011;63651;55.728;38.022;2022-12-29T19:11:04;6.32;;;4.72;;
75071;SDS011;63651;55.728;38.022;2022-12-29T19:16:06;6.95;;;4.35;;
75071;SDS011;63651;55.728;38.022;2022-12-29T19:21:12;5.85;;;4.40;;
75071;SDS011;63651;55.728;38.022;2022-12-29T19:26:27;7.35;;;4.75;;
75071;SDS011;63651;55.728;38.022;2022-12-29T19:31:34;8.25;;;4.63;;
75071;SDS011;63651;55.728;38.022;2022-12-29T19:36:37;9.15;;;5.43;;
75071;SDS011;63651;55.728;38.022;2022-12-29T19:41:38;6.75;;;5.32;;
75071;SDS011;63651;55.728;38.022;2022-12-29T19:46:39;7.07;;;5.60;;
75071;SDS011;63651;55.728;38.022;2022-12-29T19:51:40;8.75;;;4.85;;
75071;SDS011;63651;55.728;38.022;2022-12-29T19:56:41;7.03;;;4.85;;
75071;SDS011;63651;55.728;38.022;2022-12-29T20:01:43;9.70;;;4.90;;
75071;SDS011;63651;55.728;38.022;2022-12-29T20:06:44;8.55;;;5.10;;
75071;SDS011;63651;55.728;38.022;2022-12-29T20:11:46;8.93;;;5.78;;
75071;SDS011;63651;55.728;38.022;2022-12-29T20:16:47;8.80;;;5.63;;
75071;SDS011;63651;55.728;38.022;2022-12-29T20:21:48;9.80;;;5.43;;
75071;SDS011;63651;55.728;38.022;2022-12-29T20:26:49;8.25;;;5.20;;
75071;SDS011;63651;55.728;38.022;2022-12-29T20:31:50;9.73;;;5.97;;
75071;SDS011;63651;55.728;38.022;2022-12-29T20:36:52;9.35;;;5.82;;
75071;SDS011;63651;55.728;38.022;2022-12-29T20:41:53;8.85;;;5.72;;
75071;SDS011;63651;55.728;38.022;2022-12-29T20:46:54;8.13;;;6.07;;
75071;SDS011;63651;55.728;38.022;2022-12-29T20:51:56;8.48;;;5.80;;
75071;SDS011;63651;55.728;38.022;2022-12-29T20:56:57;7.93;;;5.78;;
75071;SDS011;63651;55.728;38.022;2022-12-29T21:01:58;10.10;;;5.97;;
75071;SDS011;63651;55.728;38.022;2022-12-29T21:06:59;8.80;;;5.28;;
75071;SDS011;63651;55.728;38.022;2022-12-29T21:12:00;10.60;;;6.28;;
75071;SDS011;63651;55.728;38.022;2022-12-29T21:17:02;10.02;;;6.10;;
75071;SDS011;63651;55.728;38.022;2022-12-29T21:22:03;7.15;;;5.43;;
75071;SDS011;63651;55.728;38.022;2022-12-29T21:27:04;9.73;;;5.78;;
75071;SDS011;63651;55.728;38.022;2022-12-29T21:32:05;11.95;;;6.63;;
75071;SDS011;63651;55.728;38.022;2022-12-29T21:37:06;9.38;;;5.95;;
75071;SDS011;63651;55.728;38.022;2022-12-29T21:42:07;8.75;;;5.90;;
75071;SDS011;63651;55.728;38.022;2022-12-29T21:47:09;8.98;;;4.88;;
75071;SDS011;63651;55.728;38.022;2022-12-29T21:52:10;9.02;;;5.90;;
75071;SDS011;63651;55.728;38.022;2022-12-29T21:57:12;9.07;;;5.57;;
75071;SDS011;63651;55.728;38.022;2022-12-29T22:02:38;8.70;;;6.00;;
75071;SDS011;63651;55.728;38.022;2022-12-29T22:07:57;9.32;;;5.93;;
75071;SDS011;63651;55.728;38.022;2022-12-29T22:13:17;8.13;;;5.43;;
75071;SDS011;63651;55.728;38.022;2022-12-29T22:18:18;9.50;;;5.07;;
75071;SDS011;63651;55.728;38.022;2022-12-29T22:23:19;9.77;;;6.03;;
75071;SDS011;63651;55.728;38.022;2022-12-29T22:28:21;10.52;;;5.50;;
75071;SDS011;63651;55.728;38.022;2022-12-29T22:33:22;11.18;;;5.95;;
75071;SDS011;63651;55.728;38.022;2022-12-29T22:38:23;13.43;;;6.68;;
75071;SDS011;63651;55.728;38.022;2022-12-29T22:43:24;10.80;;;5.70;;
75071;SDS011;63651;55.728;38.022;2022-12-29T22:48:25;9.75;;;5.82;;
75071;SDS011;63651;55.728;38.022;2022-12-29T22:53:26;10.90;;;6.15;;
75071;SDS011;63651;55.728;38.022;2022-12-29T22:58:28;11.10;;;5.63;;
75071;SDS011;63651;55.728;38.022;2022-12-29T23:03:29;11.57;;;6.22;;
75071;SDS011;63651;55.728;38.022;2022-12-29T23:08:31;9.40;;;5.85;;
75071;SDS011;63651;55.728;38.022;2022-12-29T23:13:35;10.70;;;6.03;;
75071;SDS011;63651;55.728;38.022;2022-12-29T23:18:36;9.02;;;5.63;;
75071;SDS011;63651;55.728;38.022;2022-12-29T23:23:37;11.73;;;6.75;;
75071;SDS011;63651;55.728;38.022;2022-12-29T23:28:53;12.68;;;6.80;;
75071;SDS011;63651;55.728;38.022;2022-12-29T23:33:55;10.75;;;6.70;;
75071;SDS011;63651;55.728;38.022;2022-12-29T23:38:57;9.90;;;6.22;;
75071;SDS011;63651;55.728;38.022;2022-12-29T23:43:58;11.27;;;6.50;;
75071;SDS011;63651;55.728;38.022;2022-12-29T23:48:59;10.85;;;6.90;;
75071;SDS011;63651;55.728;38.022;2022-12-29T23:54:01;11.82;;;6.07;;
75071;SDS011;63651;55.728;38.022;2022-12-29T23:59:03;10.65;;;6.68;;
